Time;durP1;ratioP1;P1;durP2;ratioP2;P2;SDS_P1;SDS_P2;PMS_P1;PMS_P2;Temp;Humidity;BMP_temperature;BMP_pressure;BME280_temperature;BME280_humidity;BME280_pressure;Samples;Min_cycle;Max_cycle;Signal;HPM_P1;HPM_P2
2023/10/31 00:00:16;;;;;;;3.93;3.30;;;11.70;99.90;;;;;;5015219;28;20198;-81
2023/10/31 00:02:42;;;;;;;3.77;3.47;;;11.70;99.90;;;;;;5015517;28;20186;-81
2023/10/31 00:05:08;;;;;;;3.50;3.20;;;11.70;99.90;;;;;;5014366;28;20171;-81
2023/10/31 00:07:34;;;;;;;4.73;3.50;;;11.70;99.90;;;;;;5015664;28;20200;-81
2023/10/31 00:09:59;;;;;;;3.77;3.40;;;11.70;99.90;;;;;;5015571;28;20205;-81
2023/10/31 00:12:25;;;;;;;2.93;2.73;;;11.70;99.90;;;;;;5015430;28;20175;-81
2023/10/31 00:14:50;;;;;;;3.10;2.80;;;11.80;99.90;;;;;;5014233;28;20198;-81
2023/10/31 00:17:16;;;;;;;3.03;2.77;;;11.70;99.90;;;;;;5014332;28;20175;-81
2023/10/31 00:19:42;;;;;;;3.10;2.80;;;11.70;99.90;;;;;;5015382;28;20257;-82
2023/10/31 00:22:07;;;;;;;3.00;2.70;;;11.80;99.90;;;;;;5014198;28;20333;-81
2023/10/31 00:24:33;;;;;;;2.70;2.50;;;11.80;99.90;;;;;;5015373;28;20194;-81
2023/10/31 00:26:58;;;;;;;3.13;2.83;;;11.70;99.90;;;;;;5013684;28;20645;-81
2023/10/31 00:29:24;;;;;;;2.70;2.50;;;11.70;99.90;;;;;;5013610;28;20179;-81
2023/10/31 00:31:50;;;;;;;3.30;2.57;;;11.70;99.90;;;;;;5013439;28;20182;-81
2023/10/31 00:34:15;;;;;;;2.47;2.27;;;11.70;99.90;;;;;;5015243;28;20192;-81
2023/10/31 00:36:41;;;;;;;3.03;2.70;;;11.70;99.90;;;;;;5014993;28;20262;-81
2023/10/31 00:39:06;;;;;;;3.17;2.50;;;11.70;99.90;;;;;;5014592;28;20601;-81
2023/10/31 00:41:32;;;;;;;2.60;2.40;;;11.70;99.90;;;;;;5013456;28;20214;-81
2023/10/31 00:43:58;;;;;;;2.70;2.50;;;11.70;99.90;;;;;;5014168;28;20175;-81
2023/10/31 00:46:23;;;;;;;2.97;2.50;;;11.70;99.90;;;;;;5013760;28;20195;-81
2023/10/31 00:48:49;;;;;;;2.77;2.57;;;11.70;99.90;;;;;;5013267;28;20221;-81
2023/10/31 00:51:14;;;;;;;4.10;2.63;;;11.70;99.90;;;;;;5014516;28;20210;-81
2023/10/31 00:53:40;;;;;;;3.00;2.80;;;11.70;99.90;;;;;;5014504;28;20178;-81
2023/10/31 00:56:06;;;;;;;3.13;2.60;;;11.70;99.90;;;;;;5014649;28;20186;-81
2023/10/31 00:58:31;;;;;;;3.20;2.90;;;11.80;99.90;;;;;;5013111;28;20178;-81
2023/10/31 01:00:57;;;;;;;4.13;2.60;;;11.80;99.90;;;;;;5014246;28;20207;-81
2023/10/31 01:03:23;;;;;;;3.77;2.53;;;11.80;99.90;;;;;;5013204;28;20337;-81
2023/10/31 01:05:48;;;;;;;2.70;2.50;;;11.80;99.90;;;;;;5013417;28;20672;-81
2023/10/31 01:08:15;;;;;;;2.03;1.90;;;11.80;99.90;;;;;;5014365;28;20167;-81
2023/10/31 01:10:40;;;;;;;2.47;2.27;;;11.80;99.90;;;;;;5014079;28;20698;-81
2023/10/31 01:13:06;;;;;;;2.10;1.90;;;11.80;99.90;;;;;;5012896;28;20228;-81
2023/10/31 01:15:32;;;;;;;1.80;1.70;;;11.80;99.90;;;;;;5014326;28;20193;-81
2023/10/31 01:17:57;;;;;;;1.80;1.70;;;11.80;99.90;;;;;;5013975;28;20183;-82
2023/10/31 01:20:23;;;;;;;1.70;1.60;;;11.80;99.90;;;;;;5013827;28;20195;-81
2023/10/31 01:22:49;;;;;;;2.83;1.97;;;11.80;99.90;;;;;;5013104;28;20186;-81
2023/10/31 01:25:14;;;;;;;1.57;1.37;;;11.80;99.90;;;;;;5012450;28;20183;-82
2023/10/31 01:27:41;;;;;;;2.20;1.80;;;11.80;99.90;;;;;;5013628;28;20269;-81
2023/10/31 01:30:07;;;;;;;1.40;1.30;;;11.80;99.90;;;;;;5013917;28;20194;-81
2023/10/31 01:32:33;;;;;;;2.53;1.50;;;11.80;99.90;;;;;;5012447;28;20190;-81
2023/10/31 01:34:58;;;;;;;2.00;1.60;;;11.80;99.90;;;;;;5012524;28;20186;-81
2023/10/31 01:37:24;;;;;;;2.53;1.50;;;11.80;99.90;;;;;;5012433;28;20175;-81
2023/10/31 01:39:50;;;;;;;1.47;1.37;;;11.80;99.90;;;;;;5012986;28;20195;-81
2023/10/31 01:42:16;;;;;;;1.80;1.50;;;11.80;99.90;;;;;;5013792;28;20207;-81
2023/10/31 01:44:42;;;;;;;1.73;1.30;;;11.80;99.90;;;;;;5013464;28;20261;-82
2023/10/31 01:47:07;;;;;;;2.63;1.30;;;11.70;99.90;;;;;;5012550;28;20206;-81
2023/10/31 01:49:34;;;;;;;1.63;1.47;;;11.70;99.90;;;;;;5011980;28;20202;-81
2023/10/31 01:52:02;;;;;;;1.50;1.40;;;11.70;99.90;;;;;;5013564;28;20173;-81
2023/10/31 01:54:28;;;;;;;1.37;1.27;;;11.70;99.90;;;;;;5011641;28;20273;-81
2023/10/31 01:56:58;;;;;;;1.40;1.30;;;11.70;99.90;;;;;;5011765;28;20263;-81
2023/10/31 01:59:27;;;;;;;1.30;1.20;;;11.60;99.90;;;;;;5013244;28;20210;-81
2023/10/31 02:01:54;;;;;;;2.37;1.10;;;11.60;99.90;;;;;;5013479;28;20202;-81
2023/10/31 02:04:19;;;;;;;0.97;0.93;;;11.70;99.90;;;;;;5013439;28;20638;-81
2023/10/31 02:06:45;;;;;;;1.90;1.10;;;11.70;99.90;;;;;;5012303;28;20178;-81
2023/10/31 02:09:11;;;;;;;1.50;1.40;;;11.70;99.90;;;;;;5011903;28;20174;-82
2023/10/31 02:11:37;;;;;;;1.10;1.00;;;11.70;99.90;;;;;;5012973;28;20195;-81
2023/10/31 02:14:02;;;;;;;0.90;0.90;;;11.60;99.90;;;;;;5013539;28;20183;-81
2023/10/31 02:16:28;;;;;;;0.90;0.90;;;11.60;99.90;;;;;;5012344;28;20178;-81
2023/10/31 02:18:54;;;;;;;1.00;0.80;;;11.60;99.90;;;;;;5012680;28;20186;-81
2023/10/31 02:21:20;;;;;;;1.03;1.00;;;11.60;99.90;;;;;;5011812;28;20241;-81
2023/10/31 02:24:00;;;;;;;0.80;0.80;;;11.60;99.90;;;;;;5011686;28;20175;-81
2023/10/31 02:26:33;;;;;;;1.00;0.90;;;11.60;99.90;;;;;;5012457;28;20178;-81
2023/10/31 02:28:59;;;;;;;1.67;0.70;;;11.60;99.90;;;;;;5012672;28;20584;-81
2023/10/31 02:31:26;;;;;;;0.87;0.80;;;11.60;99.90;;;;;;5013115;28;20194;-81
2023/10/31 02:33:52;;;;;;;0.93;0.83;;;11.60;99.90;;;;;;5012058;28;20186;-81
2023/10/31 02:36:18;;;;;;;0.70;0.70;;;11.50;99.90;;;;;;5011860;28;20233;-81
2023/10/31 02:38:44;;;;;;;1.10;0.80;;;11.50;99.90;;;;;;5011439;28;20178;-81
2023/10/31 02:41:18;;;;;;;1.00;0.90;;;11.50;99.90;;;;;;5012937;28;20217;-81
2023/10/31 02:43:45;;;;;;;1.17;0.90;;;11.50;99.90;;;;;;5013424;28;20206;-81
2023/10/31 02:46:13;;;;;;;2.30;0.83;;;11.40;99.90;;;;;;5013077;28;20169;-82
2023/10/31 02:48:39;;;;;;;0.73;0.73;;;11.40;99.90;;;;;;5011672;28;20285;-81
2023/10/31 02:51:06;;;;;;;1.53;0.83;;;11.40;99.90;;;;;;5012936;28;20293;-81
2023/10/31 02:53:31;;;;;;;1.13;0.80;;;11.40;99.90;;;;;;5012878;28;20180;-81
2023/10/31 02:55:57;;;;;;;1.17;0.93;;;11.50;99.90;;;;;;5011778;28;20177;-81
2023/10/31 02:58:23;;;;;;;0.83;0.83;;;11.50;99.90;;;;;;5011789;28;20225;-82
2023/10/31 03:00:48;;;;;;;0.77;0.77;;;11.40;99.90;;;;;;5012725;28;20206;-82
2023/10/31 03:03:14;;;;;;;1.17;0.80;;;11.40;99.90;;;;;;5012927;28;20229;-81
2023/10/31 03:05:39;;;;;;;1.33;1.00;;;11.40;99.90;;;;;;5012674;28;20193;-81
2023/10/31 03:08:07;;;;;;;1.00;0.90;;;11.40;99.90;;;;;;5014806;28;20329;-81
2023/10/31 03:10:32;;;;;;;1.23;0.90;;;11.30;99.90;;;;;;5016558;28;20749;-81
2023/10/31 03:12:59;;;;;;;1.97;1.00;;;11.20;99.90;;;;;;5016490;28;20179;-81
2023/10/31 03:15:24;;;;;;;1.77;1.67;;;11.20;99.90;;;;;;5015256;28;20175;-81
2023/10/31 03:17:50;;;;;;;1.10;0.83;;;11.20;99.90;;;;;;5015039;28;20656;-81
2023/10/31 03:20:15;;;;;;;1.00;0.90;;;11.30;99.90;;;;;;5015785;28;20198;-81
2023/10/31 03:22:41;;;;;;;1.17;1.00;;;11.20;99.90;;;;;;5016054;28;20207;-81
2023/10/31 03:25:07;;;;;;;0.80;0.80;;;11.20;99.90;;;;;;5016250;28;20175;-81
2023/10/31 03:27:32;;;;;;;1.67;0.80;;;11.20;99.90;;;;;;5016416;28;20183;-82
2023/10/31 03:29:58;;;;;;;1.13;0.87;;;11.10;99.90;;;;;;5015079;28;20264;-81
2023/10/31 03:32:23;;;;;;;2.00;0.70;;;11.20;99.90;;;;;;5016038;28;20601;-81
2023/10/31 03:34:49;;;;;;;1.30;0.70;;;11.20;99.90;;;;;;5015064;28;20539;-81
2023/10/31 03:37:14;;;;;;;0.73;0.70;;;11.20;99.90;;;;;;5016210;28;20592;-81
2023/10/31 03:39:40;;;;;;;0.70;0.70;;;11.20;99.90;;;;;;5031044;28;20569;-81
2023/10/31 03:42:05;;;;;;;0.90;0.80;;;11.20;99.90;;;;;;5014920;28;20207;-81
2023/10/31 03:44:31;;;;;;;0.50;0.50;;;11.20;99.90;;;;;;5015856;28;20705;-81
2023/10/31 03:46:56;;;;;;;0.60;0.60;;;11.20;99.90;;;;;;5014909;28;20171;-81
2023/10/31 03:49:22;;;;;;;0.73;0.70;;;11.10;99.90;;;;;;5015527;28;20545;-81
2023/10/31 03:51:47;;;;;;;0.80;0.63;;;11.00;99.90;;;;;;5015348;28;20190;-81
2023/10/31 03:54:13;;;;;;;0.83;0.50;;;11.10;99.90;;;;;;5015443;28;20179;-81
2023/10/31 03:56:43;;;;;;;1.27;1.00;;;11.00;99.90;;;;;;5014458;28;20187;-81
2023/10/31 03:59:09;;;;;;;0.50;0.50;;;11.00;99.90;;;;;;5014239;28;20210;-81
2023/10/31 04:01:35;;;;;;;0.57;0.57;;;11.00;99.90;;;;;;5015340;28;20276;-81
2023/10/31 04:04:01;;;;;;;1.33;0.80;;;10.90;99.90;;;;;;5015517;28;20182;-81
2023/10/31 04:06:26;;;;;;;1.13;0.77;;;10.80;99.90;;;;;;5015146;28;20254;-81
2023/10/31 04:08:52;;;;;;;1.53;0.80;;;10.80;99.90;;;;;;5013804;28;20270;-82
2023/10/31 04:11:18;;;;;;;0.87;0.87;;;10.70;99.90;;;;;;5015087;28;20191;-81
2023/10/31 04:13:43;;;;;;;1.67;1.07;;;10.70;99.90;;;;;;5015413;28;20179;-81
2023/10/31 04:16:09;;;;;;;1.03;1.00;;;10.70;99.90;;;;;;5014266;28;20189;-81
2023/10/31 04:18:35;;;;;;;1.63;1.10;;;10.60;99.90;;;;;;5014040;28;20701;-81
2023/10/31 04:21:01;;;;;;;1.57;1.30;;;10.60;99.90;;;;;;5013926;28;20290;-81
2023/10/31 04:23:26;;;;;;;2.27;1.50;;;10.50;99.90;;;;;;5030577;28;20653;-81
2023/10/31 04:25:52;;;;;;;1.30;1.20;;;10.50;99.90;;;;;;5013930;28;20270;-81
2023/10/31 04:28:18;;;;;;;2.27;1.17;;;10.40;99.90;;;;;;5013587;28;20172;-81
2023/10/31 04:30:44;;;;;;;1.33;1.23;;;10.40;99.90;;;;;;5014648;28;20703;-81
2023/10/31 04:33:10;;;;;;;1.60;1.50;;;10.40;99.90;;;;;;5013407;28;20266;-81
2023/10/31 04:35:35;;;;;;;2.73;1.57;;;10.40;99.90;;;;;;5013372;28;20265;-81
2023/10/31 04:38:01;;;;;;;1.70;1.40;;;10.40;99.90;;;;;;5014687;28;20261;-82
2023/10/31 04:40:26;;;;;;;1.47;1.37;;;10.30;99.90;;;;;;5014548;28;20198;-81
2023/10/31 04:42:52;;;;;;;1.47;1.37;;;10.30;99.90;;;;;;5014377;28;20199;-81
2023/10/31 04:45:18;;;;;;;1.50;1.40;;;10.30;99.90;;;;;;5013149;28;20172;-81
2023/10/31 04:47:43;;;;;;;2.90;1.40;;;10.30;99.90;;;;;;5013175;28;20254;-81
2023/10/31 04:50:09;;;;;;;2.00;1.37;;;10.30;99.90;;;;;;5074562;23;20223;-82
2023/10/31 04:52:35;;;;;;;1.30;1.20;;;10.30;99.90;;;;;;5029474;28;20556;-81
2023/10/31 04:55:01;;;;;;;1.37;1.10;;;10.20;99.90;;;;;;5014308;28;20171;-82
2023/10/31 04:57:26;;;;;;;1.00;1.00;;;10.20;99.90;;;;;;5029432;28;20277;-81
2023/10/31 04:59:54;;;;;;;1.93;1.40;;;10.20;99.90;;;;;;5028948;28;20203;-81
2023/10/31 05:02:22;;;;;;;2.60;1.20;;;10.10;99.90;;;;;;5012512;28;20214;-81
2023/10/31 05:04:50;;;;;;;1.50;1.17;;;10.10;99.90;;;;;;5012838;28;20179;-81
2023/10/31 05:07:16;;;;;;;2.67;1.30;;;10.10;99.90;;;;;;5013165;28;20183;-83
2023/10/31 05:09:42;;;;;;;1.47;1.20;;;10.10;99.90;;;;;;5012947;28;20179;-84
2023/10/31 05:12:08;;;;;;;1.30;1.20;;;10.10;99.90;;;;;;5014409;28;20187;-83
2023/10/31 05:14:33;;;;;;;1.40;1.30;;;10.10;99.90;;;;;;5013177;28;20228;-82
2023/10/31 05:16:59;;;;;;;2.80;1.20;;;10.20;99.90;;;;;;5012927;28;20321;-80
2023/10/31 05:19:25;;;;;;;1.10;1.00;;;10.10;99.90;;;;;;5013889;28;20237;-80
2023/10/31 05:21:51;;;;;;;1.20;1.10;;;10.20;99.90;;;;;;5012925;28;20214;-80
2023/10/31 05:24:17;;;;;;;4.20;1.00;;;10.10;99.90;;;;;;5014150;28;20181;-80
2023/10/31 05:26:42;;;;;;;1.00;1.00;;;10.20;99.90;;;;;;5013858;28;20549;-81
2023/10/31 05:29:08;;;;;;;1.13;0.90;;;10.20;99.90;;;;;;5012226;28;20179;-80
2023/10/31 05:31:34;;;;;;;1.00;1.00;;;10.10;99.90;;;;;;5012634;28;20210;-81
2023/10/31 05:34:00;;;;;;;0.87;0.80;;;10.20;99.90;;;;;;5013815;28;20254;-81
2023/10/31 05:36:27;;;;;;;0.90;0.90;;;10.00;99.90;;;;;;5012692;28;20340;-81
2023/10/31 05:38:53;;;;;;;1.63;0.80;;;10.00;99.90;;;;;;5012285;28;20186;-80
2023/10/31 05:41:19;;;;;;;3.10;1.00;;;10.00;99.90;;;;;;5012304;28;20280;-82
2023/10/31 05:43:44;;;;;;;1.20;1.10;;;10.00;99.90;;;;;;5012308;28;20209;-82
2023/10/31 05:46:10;;;;;;;1.10;1.00;;;10.00;99.90;;;;;;5013626;28;20186;-82
2023/10/31 05:48:39;;;;;;;0.90;0.90;;;10.00;99.90;;;;;;5013433;28;20179;-79
2023/10/31 05:51:14;;;;;;;1.20;1.07;;;9.90;99.90;;;;;;5011996;28;20603;-82
2023/10/31 05:53:41;;;;;;;1.00;1.00;;;9.90;99.90;;;;;;5013596;28;20175;-82
2023/10/31 05:56:07;;;;;;;1.53;1.03;;;9.90;99.90;;;;;;5012067;28;20246;-82
2023/10/31 05:58:33;;;;;;;1.93;1.17;;;9.90;99.90;;;;;;5011643;28;20606;-81
2023/10/31 06:00:58;;;;;;;1.10;0.90;;;9.90;99.90;;;;;;5011638;28;20210;-81
2023/10/31 06:03:24;;;;;;;1.30;1.10;;;9.90;99.90;;;;;;5011844;28;20182;-81
2023/10/31 06:05:50;;;;;;;2.23;1.13;;;10.00;99.90;;;;;;5012219;28;20175;-82
2023/10/31 06:08:15;;;;;;;1.77;1.10;;;10.00;99.90;;;;;;5012228;28;20171;-83
2023/10/31 06:10:41;;;;;;;1.30;1.20;;;9.90;99.90;;;;;;5011625;28;20195;-82
2023/10/31 06:13:06;;;;;;;1.47;1.20;;;9.90;99.90;;;;;;5011843;28;20171;-82
2023/10/31 06:15:32;;;;;;;1.20;1.10;;;9.90;99.90;;;;;;5011545;28;20566;-82
2023/10/31 06:17:57;;;;;;;1.90;1.43;;;9.80;99.90;;;;;;5013011;28;20556;-84
2023/10/31 06:20:23;;;;;;;1.40;1.30;;;9.80;99.90;;;;;;5011632;28;20195;-82
2023/10/31 06:22:49;;;;;;;1.63;1.50;;;9.80;99.90;;;;;;5013123;28;20202;-82
2023/10/31 06:25:14;;;;;;;2.30;1.20;;;9.80;99.90;;;;;;5012942;28;20179;-82
2023/10/31 06:27:40;;;;;;;1.40;1.30;;;9.80;99.90;;;;;;5013056;28;20185;-82
2023/10/31 06:30:06;;;;;;;2.77;1.70;;;9.80;99.90;;;;;;5011477;28;20271;-82
2023/10/31 06:32:32;;;;;;;1.60;1.50;;;9.80;99.90;;;;;;5011510;28;20254;-83
2023/10/31 06:34:57;;;;;;;2.07;1.30;;;9.80;99.90;;;;;;5013153;28;20210;-82
2023/10/31 06:37:23;;;;;;;1.60;1.50;;;9.80;99.90;;;;;;5011943;28;20178;-82
2023/10/31 06:39:48;;;;;;;1.50;1.40;;;9.80;99.90;;;;;;5012534;28;20193;-83
2023/10/31 06:42:14;;;;;;;1.70;1.60;;;9.80;99.90;;;;;;5015060;28;20214;-82
2023/10/31 06:44:39;;;;;;;2.53;1.30;;;9.80;99.90;;;;;;5016751;28;20174;-83
2023/10/31 06:47:05;;;;;;;2.20;1.30;;;9.90;99.90;;;;;;5015315;28;20171;-82
2023/10/31 06:49:30;;;;;;;1.50;1.40;;;9.80;99.90;;;;;;5015749;28;20194;-83
2023/10/31 06:51:56;;;;;;;2.07;1.57;;;9.90;99.90;;;;;;5016938;28;20248;-80
2023/10/31 06:54:21;;;;;;;3.23;1.30;;;9.80;99.90;;;;;;5015791;28;20313;-81
2023/10/31 06:56:47;;;;;;;1.63;1.20;;;9.80;99.90;;;;;;5015293;28;20182;-81
2023/10/31 06:59:13;;;;;;;1.30;1.20;;;9.80;99.90;;;;;;5016908;28;20678;-81
2023/10/31 07:01:38;;;;;;;3.63;1.20;;;9.90;99.90;;;;;;5016692;28;20206;-81
2023/10/31 07:04:04;;;;;;;1.30;1.20;;;9.90;99.90;;;;;;5015974;28;20179;-81
2023/10/31 07:06:30;;;;;;;1.47;1.30;;;9.90;99.90;;;;;;5015719;28;20178;-81
2023/10/31 07:08:57;;;;;;;1.37;1.27;;;10.00;99.90;;;;;;5015054;28;20179;-81
2023/10/31 07:11:23;;;;;;;1.50;1.37;;;10.00;99.90;;;;;;5012681;28;20202;-81
2023/10/31 07:13:48;;;;;;;1.27;1.17;;;10.00;99.90;;;;;;5009394;28;20207;-81
2023/10/31 07:16:14;;;;;;;1.53;1.30;;;10.00;99.90;;;;;;5015780;28;20195;-81
2023/10/31 07:18:39;;;;;;;1.30;1.20;;;10.00;99.90;;;;;;5014090;28;20232;-81
2023/10/31 07:21:05;;;;;;;1.47;1.33;;;10.00;99.90;;;;;;5014543;28;20195;-81
2023/10/31 07:23:31;;;;;;;2.13;1.43;;;10.00;99.90;;;;;;5011557;28;20262;-81
2023/10/31 07:25:56;;;;;;;1.73;1.33;;;10.00;99.90;;;;;;5013458;28;20172;-80
2023/10/31 07:28:22;;;;;;;1.53;1.30;;;10.00;99.90;;;;;;5016091;28;20183;-81
2023/10/31 07:30:48;;;;;;;1.37;1.27;;;10.10;99.90;;;;;;5015145;28;20195;-82
2023/10/31 07:33:13;;;;;;;1.97;1.20;;;10.00;99.90;;;;;;5015151;28;20177;-80
2023/10/31 07:35:39;;;;;;;1.60;1.50;;;10.10;99.90;;;;;;5014758;28;20179;-81
2023/10/31 07:38:04;;;;;;;1.43;1.33;;;10.00;99.90;;;;;;5014865;28;20261;-81
2023/10/31 07:40:30;;;;;;;1.93;1.43;;;10.00;99.90;;;;;;5015671;28;20300;-82
2023/10/31 07:42:55;;;;;;;1.60;1.50;;;10.00;99.90;;;;;;5014878;28;20212;-81
2023/10/31 07:45:21;;;;;;;1.70;1.60;;;10.00;99.90;;;;;;5016454;28;20202;-81
2023/10/31 07:47:46;;;;;;;2.50;1.47;;;9.90;99.90;;;;;;5015055;28;20225;-81
2023/10/31 07:50:13;;;;;;;1.87;1.50;;;10.00;99.90;;;;;;5015726;28;20210;-81
2023/10/31 07:52:38;;;;;;;4.63;1.60;;;10.00;99.90;;;;;;5015208;28;20266;-81
2023/10/31 07:55:04;;;;;;;1.63;1.53;;;10.00;99.90;;;;;;5016397;28;20210;-81
2023/10/31 07:57:30;;;;;;;1.40;1.30;;;10.00;99.90;;;;;;5015044;28;20179;-80
2023/10/31 07:59:55;;;;;;;3.47;1.60;;;10.00;99.90;;;;;;5015839;28;20198;-81
2023/10/31 08:02:21;;;;;;;2.23;1.60;;;10.00;99.90;;;;;;5015235;28;20289;-81
2023/10/31 08:04:46;;;;;;;1.67;1.57;;;10.00;99.90;;;;;;5013536;28;20261;-82
2023/10/31 08:07:12;;;;;;;1.83;1.70;;;10.00;99.90;;;;;;5012479;28;20204;-81
2023/10/31 08:09:38;;;;;;;2.10;1.90;;;10.00;99.90;;;;;;5014914;28;20171;-82
2023/10/31 08:12:03;;;;;;;2.00;1.80;;;9.90;99.90;;;;;;5010456;28;20180;-81
2023/10/31 08:14:29;;;;;;;2.47;2.20;;;9.90;99.90;;;;;;5004457;28;20187;-79
2023/10/31 08:16:54;;;;;;;2.40;2.20;;;9.90;99.90;;;;;;5024603;28;20187;-79
2023/10/31 08:19:20;;;;;;;2.40;2.20;;;9.90;99.90;;;;;;5021958;28;20185;-80
2023/10/31 08:21:46;;;;;;;3.77;2.10;;;9.90;99.90;;;;;;5007098;28;20195;-80
2023/10/31 08:24:13;;;;;;;2.83;2.17;;;9.90;99.90;;;;;;5011697;28;20202;-81
2023/10/31 08:26:38;;;;;;;2.53;2.03;;;9.90;99.90;;;;;;4994317;28;20198;-80
2023/10/31 08:29:04;;;;;;;2.00;1.90;;;9.90;99.90;;;;;;5012267;28;20660;-78
2023/10/31 08:31:30;;;;;;;2.63;2.00;;;9.90;99.90;;;;;;5014447;28;20207;-78
2023/10/31 08:33:55;;;;;;;2.20;1.80;;;9.90;99.90;;;;;;5007116;28;20238;-79
2023/10/31 08:36:21;;;;;;;2.07;1.77;;;9.90;99.90;;;;;;5005693;28;20255;-80
2023/10/31 08:38:46;;;;;;;2.20;2.00;;;9.90;99.90;;;;;;5006813;28;20236;-83
2023/10/31 08:41:18;;;;;;;3.23;2.93;;;9.90;99.90;;;;;;5006302;28;20210;-80
2023/10/31 08:43:44;;;;;;;2.10;1.90;;;9.90;99.90;;;;;;5014873;28;20182;-80
2023/10/31 08:46:09;;;;;;;2.23;1.93;;;9.90;99.90;;;;;;5013204;28;20652;-80
2023/10/31 08:48:35;;;;;;;2.63;2.00;;;10.00;99.90;;;;;;5012645;28;20171;-80
2023/10/31 08:51:00;;;;;;;2.20;1.80;;;10.10;99.90;;;;;;5012989;28;20206;-81
2023/10/31 08:53:27;;;;;;;1.93;1.50;;;10.00;99.90;;;;;;5013870;28;20206;-81
2023/10/31 08:55:52;;;;;;;2.07;1.50;;;10.10;99.90;;;;;;5014419;28;20187;-81
2023/10/31 08:58:18;;;;;;;1.60;1.50;;;10.10;99.90;;;;;;5012990;28;20175;-82
2023/10/31 09:00:44;;;;;;;1.60;1.50;;;10.10;99.90;;;;;;5014240;28;20214;-80
2023/10/31 09:03:09;;;;;;;2.27;1.50;;;10.20;99.90;;;;;;5013218;28;20562;-81
2023/10/31 09:05:35;;;;;;;1.50;1.40;;;10.20;99.90;;;;;;5014237;28;20175;-81
2023/10/31 09:08:00;;;;;;;1.50;1.40;;;10.20;99.90;;;;;;5013121;28;20175;-81
2023/10/31 09:10:26;;;;;;;1.37;1.27;;;10.30;99.90;;;;;;5012868;28;20202;-80
2023/10/31 09:12:52;;;;;;;1.50;1.40;;;10.20;99.90;;;;;;5015462;28;20218;-80
2023/10/31 09:15:18;;;;;;;1.80;1.33;;;10.10;99.90;;;;;;5015481;28;20221;-81
2023/10/31 09:17:44;;;;;;;1.60;1.50;;;10.10;99.90;;;;;;5013465;28;20183;-81
2023/10/31 09:20:11;;;;;;;2.10;1.50;;;10.10;99.90;;;;;;5013406;28;20210;-81
2023/10/31 09:22:37;;;;;;;3.50;1.40;;;10.10;99.90;;;;;;5014378;28;20198;-81
2023/10/31 09:25:03;;;;;;;1.50;1.40;;;10.20;99.90;;;;;;5015040;28;20202;-80
2023/10/31 09:27:28;;;;;;;1.60;1.30;;;10.20;99.90;;;;;;5014920;28;20175;-81
2023/10/31 09:29:54;;;;;;;1.53;1.30;;;10.20;99.90;;;;;;5013147;28;20209;-81
2023/10/31 09:32:19;;;;;;;1.70;1.50;;;10.20;99.90;;;;;;5013384;28;20270;-81
2023/10/31 09:34:45;;;;;;;1.50;1.40;;;10.30;99.90;;;;;;5014235;28;20198;-82
2023/10/31 09:37:10;;;;;;;1.83;1.50;;;10.30;99.90;;;;;;5014920;28;20186;-80
2023/10/31 09:39:36;;;;;;;1.40;1.30;;;10.30;99.90;;;;;;5014706;28;20548;-80
2023/10/31 09:42:02;;;;;;;1.33;1.23;;;10.40;99.90;;;;;;5015286;28;20234;-80
2023/10/31 09:44:27;;;;;;;2.67;1.23;;;10.30;99.90;;;;;;5013722;28;20175;-81
2023/10/31 09:46:53;;;;;;;1.20;1.10;;;10.30;99.90;;;;;;5013796;28;20261;-80
2023/10/31 09:49:19;;;;;;;1.23;1.10;;;10.40;99.90;;;;;;5013171;28;20540;-81
2023/10/31 09:51:47;;;;;;;1.30;1.20;;;10.40;99.90;;;;;;5014986;28;20214;-81
2023/10/31 09:54:16;;;;;;;1.30;1.20;;;10.40;99.90;;;;;;5014579;28;20238;-81
2023/10/31 09:56:43;;;;;;;4.00;1.20;;;10.40;99.90;;;;;;5011961;28;20187;-80
2023/10/31 09:59:09;;;;;;;1.20;1.10;;;10.40;99.90;;;;;;5013195;28;20198;-82
2023/10/31 10:01:35;;;;;;;1.90;1.10;;;10.50;99.90;;;;;;5012865;28;20226;-79
2023/10/31 10:04:00;;;;;;;2.27;1.17;;;10.50;99.90;;;;;;5013488;28;20183;-79
2023/10/31 10:06:26;;;;;;;1.50;1.00;;;10.50;99.90;;;;;;5013185;28;20268;-82
2023/10/31 10:08:52;;;;;;;1.60;1.00;;;10.40;99.90;;;;;;5012130;28;20245;-81
2023/10/31 10:11:18;;;;;;;1.60;1.10;;;10.50;99.90;;;;;;5028304;28;20191;-82
2023/10/31 10:13:44;;;;;;;1.10;1.00;;;10.50;99.90;;;;;;5011283;28;20179;-83
2023/10/31 10:16:10;;;;;;;1.33;1.10;;;10.60;99.90;;;;;;5011821;28;20286;-81
2023/10/31 10:18:40;;;;;;;1.63;1.00;;;10.60;99.90;;;;;;5013937;28;20175;-78
2023/10/31 10:21:07;;;;;;;0.90;0.90;;;10.70;99.90;;;;;;5013410;28;20206;-81
2023/10/31 10:23:33;;;;;;;1.20;1.10;;;10.70;99.90;;;;;;5013633;28;20207;-81
2023/10/31 10:26:00;;;;;;;1.30;1.20;;;10.70;99.90;;;;;;5013913;28;20175;-80
2023/10/31 10:28:26;;;;;;;1.53;1.00;;;10.60;99.90;;;;;;5016186;28;20260;-81
2023/10/31 10:30:56;;;;;;;1.20;1.10;;;10.60;99.90;;;;;;5013990;28;20276;-80
2023/10/31 10:33:22;;;;;;;2.10;1.07;;;10.60;99.90;;;;;;5012785;28;20186;-79
2023/10/31 10:35:48;;;;;;;2.13;1.20;;;10.60;99.90;;;;;;5012740;28;20175;-80
2023/10/31 10:38:16;;;;;;;1.17;1.07;;;10.50;99.90;;;;;;5014052;28;20198;-79
2023/10/31 10:40:46;;;;;;;2.87;1.10;;;10.50;99.90;;;;;;5011871;28;20191;-79
2023/10/31 10:43:25;;;;;;;1.43;1.10;;;10.50;99.90;;;;;;5013952;28;20189;-80
2023/10/31 10:45:57;;;;;;;2.67;1.40;;;10.40;99.90;;;;;;5012513;28;20185;-79
2023/10/31 10:48:27;;;;;;;2.33;1.60;;;10.40;99.90;;;;;;5013050;28;20187;-81
2023/10/31 10:51:24;;;;;;;1.20;1.10;;;10.70;99.90;;;;;;5073158;23;20223;-81
2023/10/31 10:53:57;;;;;;;1.30;1.20;;;10.80;99.90;;;;;;5008773;28;20178;-80
2023/10/31 10:56:39;;;;;;;1.90;1.20;;;10.80;99.90;;;;;;4994157;28;20176;-81
2023/10/31 10:59:16;;;;;;;1.30;1.20;;;10.70;99.90;;;;;;5008648;28;20176;-80
2023/10/31 11:01:43;;;;;;;1.27;1.13;;;10.70;99.90;;;;;;4993450;28;20215;-81
2023/10/31 11:04:09;;;;;;;1.20;1.10;;;10.70;99.90;;;;;;4993689;28;20716;-81
2023/10/31 11:06:37;;;;;;;1.50;1.10;;;10.70;99.90;;;;;;4993351;28;20172;-81
2023/10/31 11:09:06;;;;;;;1.80;1.30;;;10.70;99.90;;;;;;4993168;28;20172;-81
2023/10/31 11:11:32;;;;;;;1.80;1.30;;;10.70;99.90;;;;;;4994364;28;20200;-81
2023/10/31 11:14:01;;;;;;;1.90;1.53;;;10.60;99.90;;;;;;4992094;28;20188;-82
2023/10/31 11:16:35;;;;;;;2.90;1.30;;;10.60;99.90;;;;;;4993442;28;20179;-81
2023/10/31 11:19:01;;;;;;;3.53;2.37;;;10.50;99.90;;;;;;4992299;28;20263;-80
2023/10/31 11:21:29;;;;;;;2.23;1.60;;;10.50;99.90;;;;;;4992697;28;20294;-80
2023/10/31 11:23:59;;;;;;;2.27;2.00;;;10.50;99.90;;;;;;4993240;28;20172;-81
2023/10/31 11:26:30;;;;;;;2.10;1.37;;;10.50;99.90;;;;;;4992179;28;20168;-80
2023/10/31 11:29:06;;;;;;;1.77;1.40;;;10.50;99.90;;;;;;4995241;28;20526;-80
2023/10/31 11:31:35;;;;;;;5.73;2.03;;;10.50;99.90;;;;;;4995427;28;20199;-79
2023/10/31 11:34:05;;;;;;;3.20;1.30;;;10.50;99.90;;;;;;4995892;28;20176;-81
2023/10/31 11:36:34;;;;;;;2.17;1.30;;;10.50;99.90;;;;;;4997363;28;20176;-80
2023/10/31 11:39:20;;;;;;;2.13;1.27;;;10.50;99.90;;;;;;5012633;28;20179;-80
2023/10/31 11:41:49;;;;;;;1.43;1.30;;;10.60;99.90;;;;;;4996015;28;20199;-85
2023/10/31 11:44:16;;;;;;;1.50;1.40;;;10.60;99.90;;;;;;4994670;28;20263;-83
2023/10/31 11:46:41;;;;;;;3.10;1.50;;;10.60;99.90;;;;;;4995444;28;20183;-83
2023/10/31 11:49:07;;;;;;;2.43;1.30;;;10.60;99.90;;;;;;4995245;28;20175;-83
2023/10/31 11:51:33;;;;;;;1.50;1.40;;;10.60;99.90;;;;;;5012882;28;20708;-82
2023/10/31 11:54:02;;;;;;;2.30;1.40;;;10.70;99.90;;;;;;4996402;28;20535;-82
2023/10/31 11:56:28;;;;;;;2.00;1.20;;;10.70;99.90;;;;;;4994409;28;20191;-81
2023/10/31 11:59:03;;;;;;;1.93;1.77;;;10.70;99.90;;;;;;4994195;28;20172;-83
2023/10/31 12:01:29;;;;;;;1.43;1.33;;;10.60;99.90;;;;;;4995533;28;20311;-82
2023/10/31 12:03:54;;;;;;;2.33;1.67;;;10.70;99.90;;;;;;4998189;28;20221;-82
2023/10/31 12:06:21;;;;;;;1.50;1.27;;;10.60;99.90;;;;;;4998264;28;20175;-82
2023/10/31 12:08:48;;;;;;;1.83;1.40;;;10.80;99.90;;;;;;4996393;28;20546;-82
2023/10/31 12:11:16;;;;;;;2.77;1.97;;;10.80;99.90;;;;;;4994082;28;20200;-83
2023/10/31 12:13:55;;;;;;;3.80;2.40;;;10.80;99.90;;;;;;4996107;28;20183;-83
2023/10/31 12:16:24;;;;;;;5.83;5.00;;;10.80;99.90;;;;;;4994277;28;20199;-82
2023/10/31 12:18:55;;;;;;;3.23;2.40;;;10.80;99.90;;;;;;4994955;28;20176;-82
2023/10/31 12:21:40;;;;;;;23.00;16.20;;;10.80;99.90;;;;;;4997657;28;20206;-83
2023/10/31 12:24:07;;;;;;;5.73;3.67;;;10.80;99.90;;;;;;4994168;28;20254;-83
2023/10/31 12:26:34;;;;;;;3.03;2.20;;;10.80;99.90;;;;;;4999674;28;20625;-85
2023/10/31 12:29:17;;;;;;;2.20;1.50;;;10.90;99.90;;;;;;4999686;28;20187;-84
2023/10/31 12:31:48;;;;;;;1.57;1.40;;;10.90;99.90;;;;;;5001252;28;20221;-84
2023/10/31 12:34:14;;;;;;;1.27;1.17;;;11.00;99.90;;;;;;5000906;28;20194;-81
2023/10/31 12:36:41;;;;;;;1.37;1.20;;;11.10;99.90;;;;;;4995822;28;20207;-84
2023/10/31 12:39:11;;;;;;;3.03;1.27;;;11.10;99.90;;;;;;4991299;28;20650;-84
2023/10/31 12:41:38;;;;;;;1.57;1.10;;;11.10;99.90;;;;;;4994449;28;20707;-84
2023/10/31 12:44:05;;;;;;;1.20;1.10;;;11.20;99.90;;;;;;4993996;28;20175;-84